sensor_id;sensor_type;location;lat;lon;timestamp;P1;durP1;ratioP1;P2;durP2;ratioP2
52512;SDS011;38422;53.172;6.974;2024-03-17T00:01:01;8.40;;;3.38;;
52512;SDS011;38422;53.172;6.974;2024-03-17T00:03:28;7.43;;;2.58;;
52512;SDS011;38422;53.172;6.974;2024-03-17T00:05:55;9.57;;;3.05;;
52512;SDS011;38422;53.172;6.974;2024-03-17T00:08:24;10.77;;;2.63;;
52512;SDS011;38422;53.172;6.974;2024-03-17T00:10:51;9.32;;;3.08;;
52512;SDS011;38422;53.172;6.974;2024-03-17T00:13:17;10.80;;;3.30;;
52512;SDS011;38422;53.172;6.974;2024-03-17T00:15:43;11.93;;;5.25;;
52512;SDS011;38422;53.172;6.974;2024-03-17T00:18:09;14.00;;;5.63;;
52512;SDS011;38422;53.172;6.974;2024-03-17T00:20:36;11.00;;;4.70;;
52512;SDS011;38422;53.172;6.974;2024-03-17T00:23:03;8.70;;;3.67;;
52512;SDS011;38422;53.172;6.974;2024-03-17T00:25:31;8.30;;;2.60;;
52512;SDS011;38422;53.172;6.974;2024-03-17T00:27:59;10.82;;;2.85;;
52512;SDS011;38422;53.172;6.974;2024-03-17T00:30:28;9.43;;;2.80;;
52512;SDS011;38422;53.172;6.974;2024-03-17T00:32:53;8.00;;;2.47;;
52512;SDS011;38422;53.172;6.974;2024-03-17T00:35:20;8.03;;;3.10;;
52512;SDS011;38422;53.172;6.974;2024-03-17T00:37:49;7.82;;;2.50;;
52512;SDS011;38422;53.172;6.974;2024-03-17T00:40:16;7.50;;;2.50;;
52512;SDS011;38422;53.172;6.974;2024-03-17T00:42:45;9.50;;;2.97;;
52512;SDS011;38422;53.172;6.974;2024-03-17T00:45:11;7.40;;;2.40;;
52512;SDS011;38422;53.172;6.974;2024-03-17T00:47:37;6.97;;;2.57;;
52512;SDS011;38422;53.172;6.974;2024-03-17T00:50:03;8.43;;;2.55;;
52512;SDS011;38422;53.172;6.974;2024-03-17T00:52:31;6.47;;;2.70;;
52512;SDS011;38422;53.172;6.974;2024-03-17T00:54:57;8.57;;;2.47;;
52512;SDS011;38422;53.172;6.974;2024-03-17T00:57:23;6.22;;;2.20;;
52512;SDS011;38422;53.172;6.974;2024-03-17T00:59:49;7.15;;;2.40;;
52512;SDS011;38422;53.172;6.974;2024-03-17T01:02:15;8.33;;;2.37;;
52512;SDS011;38422;53.172;6.974;2024-03-17T01:04:42;7.70;;;2.20;;
52512;SDS011;38422;53.172;6.974;2024-03-17T01:07:08;6.53;;;2.00;;
52512;SDS011;38422;53.172;6.974;2024-03-17T01:09:34;6.47;;;1.95;;
52512;SDS011;38422;53.172;6.974;2024-03-17T01:12:00;5.97;;;2.10;;
52512;SDS011;38422;53.172;6.974;2024-03-17T01:14:26;5.47;;;2.08;;
52512;SDS011;38422;53.172;6.974;2024-03-17T01:16:53;6.93;;;2.20;;
52512;SDS011;38422;53.172;6.974;2024-03-17T01:19:19;8.73;;;2.10;;
52512;SDS011;38422;53.172;6.974;2024-03-17T01:21:45;7.60;;;2.20;;
52512;SDS011;38422;53.172;6.974;2024-03-17T01:24:11;6.07;;;1.90;;
52512;SDS011;38422;53.172;6.974;2024-03-17T01:26:38;7.25;;;2.10;;
52512;SDS011;38422;53.172;6.974;2024-03-17T01:29:03;7.03;;;2.35;;
52512;SDS011;38422;53.172;6.974;2024-03-17T01:31:29;5.35;;;1.98;;
52512;SDS011;38422;53.172;6.974;2024-03-17T01:33:55;5.65;;;2.10;;
52512;SDS011;38422;53.172;6.974;2024-03-17T01:36:21;7.00;;;2.15;;
52512;SDS011;38422;53.172;6.974;2024-03-17T01:38:46;5.03;;;2.00;;
52512;SDS011;38422;53.172;6.974;2024-03-17T01:41:12;5.30;;;2.08;;
52512;SDS011;38422;53.172;6.974;2024-03-17T01:43:39;6.05;;;2.05;;
52512;SDS011;38422;53.172;6.974;2024-03-17T01:46:05;5.45;;;2.20;;
52512;SDS011;38422;53.172;6.974;2024-03-17T01:48:35;9.68;;;2.85;;
52512;SDS011;38422;53.172;6.974;2024-03-17T01:51:02;6.55;;;2.35;;
52512;SDS011;38422;53.172;6.974;2024-03-17T01:53:28;8.88;;;2.33;;
52512;SDS011;38422;53.172;6.974;2024-03-17T01:55:55;6.75;;;2.42;;
52512;SDS011;38422;53.172;6.974;2024-03-17T01:58:24;7.10;;;2.40;;
52512;SDS011;38422;53.172;6.974;2024-03-17T02:00:51;6.32;;;2.20;;
52512;SDS011;38422;53.172;6.974;2024-03-17T02:03:19;5.63;;;2.30;;
52512;SDS011;38422;53.172;6.974;2024-03-17T02:05:45;5.55;;;2.25;;
52512;SDS011;38422;53.172;6.974;2024-03-17T02:08:11;6.65;;;2.05;;
52512;SDS011;38422;53.172;6.974;2024-03-17T02:10:37;5.60;;;2.13;;
52512;SDS011;38422;53.172;6.974;2024-03-17T02:13:03;6.32;;;2.15;;
52512;SDS011;38422;53.172;6.974;2024-03-17T02:15:32;5.28;;;2.10;;
52512;SDS011;38422;53.172;6.974;2024-03-17T02:17:58;5.05;;;2.00;;
52512;SDS011;38422;53.172;6.974;2024-03-17T02:20:24;7.32;;;2.28;;
52512;SDS011;38422;53.172;6.974;2024-03-17T02:23:10;5.75;;;1.92;;
52512;SDS011;38422;53.172;6.974;2024-03-17T02:25:37;9.98;;;2.20;;
52512;SDS011;38422;53.172;6.974;2024-03-17T02:28:02;8.13;;;2.10;;
52512;SDS011;38422;53.172;6.974;2024-03-17T02:30:29;6.22;;;2.08;;
52512;SDS011;38422;53.172;6.974;2024-03-17T02:32:55;6.65;;;2.30;;
52512;SDS011;38422;53.172;6.974;2024-03-17T02:35:22;5.50;;;2.22;;
52512;SDS011;38422;53.172;6.974;2024-03-17T02:37:48;5.82;;;1.92;;
52512;SDS011;38422;53.172;6.974;2024-03-17T02:40:14;6.63;;;2.17;;
52512;SDS011;38422;53.172;6.974;2024-03-17T02:42:41;9.00;;;2.40;;
52512;SDS011;38422;53.172;6.974;2024-03-17T02:45:07;7.43;;;2.10;;
52512;SDS011;38422;53.172;6.974;2024-03-17T02:47:33;5.90;;;2.50;;
52512;SDS011;38422;53.172;6.974;2024-03-17T02:50:00;5.75;;;1.95;;
52512;SDS011;38422;53.172;6.974;2024-03-17T02:52:26;5.93;;;1.90;;
52512;SDS011;38422;53.172;6.974;2024-03-17T02:54:52;7.05;;;1.95;;
52512;SDS011;38422;53.172;6.974;2024-03-17T02:57:22;5.78;;;2.30;;
52512;SDS011;38422;53.172;6.974;2024-03-17T02:59:50;6.22;;;2.00;;
52512;SDS011;38422;53.172;6.974;2024-03-17T03:02:16;7.65;;;2.35;;
52512;SDS011;38422;53.172;6.974;2024-03-17T03:04:43;4.88;;;2.03;;
52512;SDS011;38422;53.172;6.974;2024-03-17T03:07:08;4.38;;;1.90;;
52512;SDS011;38422;53.172;6.974;2024-03-17T03:09:34;6.20;;;2.00;;
52512;SDS011;38422;53.172;6.974;2024-03-17T03:12:00;5.03;;;1.95;;
52512;SDS011;38422;53.172;6.974;2024-03-17T03:14:29;6.18;;;2.22;;
52512;SDS011;38422;53.172;6.974;2024-03-17T03:16:57;5.60;;;2.10;;
52512;SDS011;38422;53.172;6.974;2024-03-17T03:19:23;5.85;;;2.03;;
52512;SDS011;38422;53.172;6.974;2024-03-17T03:21:49;5.85;;;1.95;;
52512;SDS011;38422;53.172;6.974;2024-03-17T03:24:15;4.75;;;1.88;;
52512;SDS011;38422;53.172;6.974;2024-03-17T03:26:42;5.27;;;2.30;;
52512;SDS011;38422;53.172;6.974;2024-03-17T03:29:09;6.07;;;2.00;;
52512;SDS011;38422;53.172;6.974;2024-03-17T03:31:35;7.18;;;2.00;;
52512;SDS011;38422;53.172;6.974;2024-03-17T03:34:01;6.82;;;2.17;;
52512;SDS011;38422;53.172;6.974;2024-03-17T03:36:28;7.53;;;2.20;;
52512;SDS011;38422;53.172;6.974;2024-03-17T03:38:54;7.18;;;3.17;;
52512;SDS011;38422;53.172;6.974;2024-03-17T03:41:23;6.35;;;2.05;;
52512;SDS011;38422;53.172;6.974;2024-03-17T03:43:49;5.78;;;2.17;;
52512;SDS011;38422;53.172;6.974;2024-03-17T03:46:15;5.20;;;1.90;;
52512;SDS011;38422;53.172;6.974;2024-03-17T03:48:41;6.07;;;1.98;;
52512;SDS011;38422;53.172;6.974;2024-03-17T03:51:07;6.53;;;2.00;;
52512;SDS011;38422;53.172;6.974;2024-03-17T03:56:02;8.15;;;2.20;;
52512;SDS011;38422;53.172;6.974;2024-03-17T03:58:34;8.88;;;2.38;;
52512;SDS011;38422;53.172;6.974;2024-03-17T04:01:10;6.53;;;2.10;;
52512;SDS011;38422;53.172;6.974;2024-03-17T04:03:40;8.00;;;2.10;;
52512;SDS011;38422;53.172;6.974;2024-03-17T04:06:07;4.72;;;2.38;;
52512;SDS011;38422;53.172;6.974;2024-03-17T04:08:35;5.82;;;2.35;;
52512;SDS011;38422;53.172;6.974;2024-03-17T04:11:02;8.25;;;2.70;;
52512;SDS011;38422;53.172;6.974;2024-03-17T04:13:29;7.13;;;2.45;;
52512;SDS011;38422;53.172;6.974;2024-03-17T04:15:58;7.78;;;2.67;;
52512;SDS011;38422;53.172;6.974;2024-03-17T04:18:26;6.95;;;2.70;;
52512;SDS011;38422;53.172;6.974;2024-03-17T04:20:55;7.78;;;2.47;;
52512;SDS011;38422;53.172;6.974;2024-03-17T04:23:22;7.45;;;2.83;;
52512;SDS011;38422;53.172;6.974;2024-03-17T04:25:48;8.57;;;2.80;;
52512;SDS011;38422;53.172;6.974;2024-03-17T04:28:17;6.80;;;2.88;;
52512;SDS011;38422;53.172;6.974;2024-03-17T04:30:43;8.73;;;2.70;;
52512;SDS011;38422;53.172;6.974;2024-03-17T04:33:10;9.90;;;3.40;;
52512;SDS011;38422;53.172;6.974;2024-03-17T04:35:36;8.93;;;3.13;;
52512;SDS011;38422;53.172;6.974;2024-03-17T04:38:03;7.03;;;2.65;;
52512;SDS011;38422;53.172;6.974;2024-03-17T04:40:28;6.40;;;3.15;;
52512;SDS011;38422;53.172;6.974;2024-03-17T04:42:55;7.60;;;2.97;;
52512;SDS011;38422;53.172;6.974;2024-03-17T04:45:21;9.23;;;3.20;;
52512;SDS011;38422;53.172;6.974;2024-03-17T04:47:47;8.23;;;3.03;;
52512;SDS011;38422;53.172;6.974;2024-03-17T04:50:12;6.75;;;2.80;;
52512;SDS011;38422;53.172;6.974;2024-03-17T04:52:38;7.90;;;2.83;;
52512;SDS011;38422;53.172;6.974;2024-03-17T04:55:04;6.75;;;2.97;;
52512;SDS011;38422;53.172;6.974;2024-03-17T04:57:29;8.38;;;3.05;;
52512;SDS011;38422;53.172;6.974;2024-03-17T04:59:55;7.32;;;2.92;;
52512;SDS011;38422;53.172;6.974;2024-03-17T05:02:21;9.15;;;3.10;;
52512;SDS011;38422;53.172;6.974;2024-03-17T05:04:48;6.18;;;2.58;;
52512;SDS011;38422;53.172;6.974;2024-03-17T05:07:14;5.85;;;2.60;;
52512;SDS011;38422;53.172;6.974;2024-03-17T05:09:40;6.20;;;2.53;;
52512;SDS011;38422;53.172;6.974;2024-03-17T05:12:06;6.97;;;2.70;;
52512;SDS011;38422;53.172;6.974;2024-03-17T05:14:32;7.18;;;2.72;;
52512;SDS011;38422;53.172;6.974;2024-03-17T05:16:57;6.80;;;3.05;;
52512;SDS011;38422;53.172;6.974;2024-03-17T05:19:23;7.53;;;2.55;;
52512;SDS011;38422;53.172;6.974;2024-03-17T05:21:49;5.75;;;1.70;;
52512;SDS011;38422;53.172;6.974;2024-03-17T05:24:14;6.07;;;1.88;;
52512;SDS011;38422;53.172;6.974;2024-03-17T05:26:40;4.82;;;1.70;;
52512;SDS011;38422;53.172;6.974;2024-03-17T05:29:10;7.30;;;1.85;;
52512;SDS011;38422;53.172;6.974;2024-03-17T05:31:36;5.15;;;1.60;;
52512;SDS011;38422;53.172;6.974;2024-03-17T05:34:04;4.53;;;1.73;;
52512;SDS011;38422;53.172;6.974;2024-03-17T05:36:32;4.38;;;1.58;;
52512;SDS011;38422;53.172;6.974;2024-03-17T05:38:59;5.43;;;2.10;;
52512;SDS011;38422;53.172;6.974;2024-03-17T05:41:25;4.70;;;1.40;;
52512;SDS011;38422;53.172;6.974;2024-03-17T05:43:51;3.53;;;1.50;;
52512;SDS011;38422;53.172;6.974;2024-03-17T05:46:17;3.85;;;1.40;;
52512;SDS011;38422;53.172;6.974;2024-03-17T05:48:43;4.47;;;1.40;;
52512;SDS011;38422;53.172;6.974;2024-03-17T05:51:12;4.60;;;1.80;;
52512;SDS011;38422;53.172;6.974;2024-03-17T05:53:38;6.22;;;1.52;;
52512;SDS011;38422;53.172;6.974;2024-03-17T05:56:05;3.35;;;1.40;;
52512;SDS011;38422;53.172;6.974;2024-03-17T05:58:36;5.65;;;1.60;;
52512;SDS011;38422;53.172;6.974;2024-03-17T06:01:03;3.55;;;1.23;;
52512;SDS011;38422;53.172;6.974;2024-03-17T06:03:29;6.40;;;1.73;;
52512;SDS011;38422;53.172;6.974;2024-03-17T06:05:55;5.68;;;1.85;;
52512;SDS011;38422;53.172;6.974;2024-03-17T06:08:23;4.60;;;1.50;;
52512;SDS011;38422;53.172;6.974;2024-03-17T06:10:50;5.18;;;1.45;;
52512;SDS011;38422;53.172;6.974;2024-03-17T06:13:15;3.97;;;1.42;;
52512;SDS011;38422;53.172;6.974;2024-03-17T06:15:42;4.03;;;1.58;;
52512;SDS011;38422;53.172;6.974;2024-03-17T06:18:09;6.20;;;1.70;;
52512;SDS011;38422;53.172;6.974;2024-03-17T06:20:42;3.63;;;1.40;;
52512;SDS011;38422;53.172;6.974;2024-03-17T06:23:13;5.28;;;1.40;;
52512;SDS011;38422;53.172;6.974;2024-03-17T06:25:41;5.90;;;1.98;;
52512;SDS011;38422;53.172;6.974;2024-03-17T06:28:08;5.80;;;1.40;;
52512;SDS011;38422;53.172;6.974;2024-03-17T06:30:39;3.33;;;1.30;;
52512;SDS011;38422;53.172;6.974;2024-03-17T06:33:05;5.47;;;1.67;;
52512;SDS011;38422;53.172;6.974;2024-03-17T06:35:31;4.85;;;1.77;;
52512;SDS011;38422;53.172;6.974;2024-03-17T06:38:00;4.20;;;1.42;;
52512;SDS011;38422;53.172;6.974;2024-03-17T06:40:28;3.65;;;1.58;;
52512;SDS011;38422;53.172;6.974;2024-03-17T06:42:54;5.35;;;1.50;;
52512;SDS011;38422;53.172;6.974;2024-03-17T06:45:20;6.25;;;1.30;;
52512;SDS011;38422;53.172;6.974;2024-03-17T06:47:45;5.47;;;1.50;;
52512;SDS011;38422;53.172;6.974;2024-03-17T06:50:11;4.13;;;1.38;;
52512;SDS011;38422;53.172;6.974;2024-03-17T06:52:37;4.07;;;1.23;;
52512;SDS011;38422;53.172;6.974;2024-03-17T06:55:04;8.43;;;1.55;;
52512;SDS011;38422;53.172;6.974;2024-03-17T06:57:30;2.78;;;1.15;;
52512;SDS011;38422;53.172;6.974;2024-03-17T06:59:56;3.63;;;1.35;;
52512;SDS011;38422;53.172;6.974;2024-03-17T07:02:21;4.35;;;1.20;;
52512;SDS011;38422;53.172;6.974;2024-03-17T07:04:47;5.00;;;1.10;;
52512;SDS011;38422;53.172;6.974;2024-03-17T07:07:13;3.92;;;1.10;;
52512;SDS011;38422;53.172;6.974;2024-03-17T07:09:39;4.68;;;1.08;;
52512;SDS011;38422;53.172;6.974;2024-03-17T07:12:09;2.97;;;1.08;;
52512;SDS011;38422;53.172;6.974;2024-03-17T07:14:36;4.35;;;1.20;;
52512;SDS011;38422;53.172;6.974;2024-03-17T07:17:02;6.72;;;1.77;;
52512;SDS011;38422;53.172;6.974;2024-03-17T07:19:28;3.95;;;1.23;;
52512;SDS011;38422;53.172;6.974;2024-03-17T07:21:55;5.63;;;1.30;;
52512;SDS011;38422;53.172;6.974;2024-03-17T07:24:20;6.72;;;1.52;;
52512;SDS011;38422;53.172;6.974;2024-03-17T07:26:49;4.57;;;1.25;;
52512;SDS011;38422;53.172;6.974;2024-03-17T07:29:15;8.27;;;1.35;;
52512;SDS011;38422;53.172;6.974;2024-03-17T07:31:41;2.60;;;0.90;;
52512;SDS011;38422;53.172;6.974;2024-03-17T07:34:08;2.72;;;0.90;;
52512;SDS011;38422;53.172;6.974;2024-03-17T07:36:34;3.78;;;1.13;;
52512;SDS011;38422;53.172;6.974;2024-03-17T07:39:01;4.75;;;1.10;;
52512;SDS011;38422;53.172;6.974;2024-03-17T07:41:27;4.32;;;1.23;;
52512;SDS011;38422;53.172;6.974;2024-03-17T07:43:53;3.70;;;1.15;;
52512;SDS011;38422;53.172;6.974;2024-03-17T07:46:18;3.20;;;1.13;;
52512;SDS011;38422;53.172;6.974;2024-03-17T07:48:44;6.70;;;1.40;;
52512;SDS011;38422;53.172;6.974;2024-03-17T07:51:11;7.05;;;1.63;;
52512;SDS011;38422;53.172;6.974;2024-03-17T07:53:38;5.60;;;1.13;;
52512;SDS011;38422;53.172;6.974;2024-03-17T07:56:06;3.30;;;1.20;;
52512;SDS011;38422;53.172;6.974;2024-03-17T07:58:34;4.75;;;1.15;;
52512;SDS011;38422;53.172;6.974;2024-03-17T08:01:05;3.13;;;0.95;;
52512;SDS011;38422;53.172;6.974;2024-03-17T08:03:33;2.67;;;0.85;;
52512;SDS011;38422;53.172;6.974;2024-03-17T08:06:00;4.07;;;1.15;;
52512;SDS011;38422;53.172;6.974;2024-03-17T08:08:29;6.07;;;1.35;;
52512;SDS011;38422;53.172;6.974;2024-03-17T08:10:56;4.33;;;0.80;;
52512;SDS011;38422;53.172;6.974;2024-03-17T08:13:22;5.13;;;1.08;;
52512;SDS011;38422;53.172;6.974;2024-03-17T08:15:56;3.17;;;1.00;;
52512;SDS011;38422;53.172;6.974;2024-03-17T08:18:23;6.70;;;1.13;;
52512;SDS011;38422;53.172;6.974;2024-03-17T08:20:49;4.90;;;1.13;;
52512;SDS011;38422;53.172;6.974;2024-03-17T08:23:14;6.50;;;0.77;;
52512;SDS011;38422;53.172;6.974;2024-03-17T08:25:40;7.07;;;1.10;;
52512;SDS011;38422;53.172;6.974;2024-03-17T08:28:06;3.33;;;0.73;;
52512;SDS011;38422;53.172;6.974;2024-03-17T08:30:35;5.43;;;1.00;;
52512;SDS011;38422;53.172;6.974;2024-03-17T08:33:00;2.75;;;0.70;;
52512;SDS011;38422;53.172;6.974;2024-03-17T08:35:26;4.20;;;0.90;;
52512;SDS011;38422;53.172;6.974;2024-03-17T08:37:52;4.43;;;0.93;;
52512;SDS011;38422;53.172;6.974;2024-03-17T08:40:21;4.68;;;0.98;;
52512;SDS011;38422;53.172;6.974;2024-03-17T08:42:47;3.20;;;0.67;;
52512;SDS011;38422;53.172;6.974;2024-03-17T08:45:13;3.45;;;0.90;;
52512;SDS011;38422;53.172;6.974;2024-03-17T08:47:39;7.35;;;0.90;;
52512;SDS011;38422;53.172;6.974;2024-03-17T08:50:05;2.42;;;0.90;;
52512;SDS011;38422;53.172;6.974;2024-03-17T08:52:33;3.47;;;0.82;;
52512;SDS011;38422;53.172;6.974;2024-03-17T08:55:00;1.30;;;0.57;;
52512;SDS011;38422;53.172;6.974;2024-03-17T08:57:28;1.92;;;0.82;;
52512;SDS011;38422;53.172;6.974;2024-03-17T08:59:54;5.70;;;1.35;;
52512;SDS011;38422;53.172;6.974;2024-03-17T09:02:20;4.03;;;0.95;;
52512;SDS011;38422;53.172;6.974;2024-03-17T09:04:48;3.33;;;1.00;;
52512;SDS011;38422;53.172;6.974;2024-03-17T09:07:14;3.70;;;0.93;;
52512;SDS011;38422;53.172;6.974;2024-03-17T09:09:42;6.50;;;1.02;;
52512;SDS011;38422;53.172;6.974;2024-03-17T09:12:08;3.03;;;0.70;;
52512;SDS011;38422;53.172;6.974;2024-03-17T09:14:34;4.65;;;0.95;;
52512;SDS011;38422;53.172;6.974;2024-03-17T09:17:00;2.90;;;0.65;;
52512;SDS011;38422;53.172;6.974;2024-03-17T09:19:26;4.30;;;1.10;;
52512;SDS011;38422;53.172;6.974;2024-03-17T09:21:54;7.35;;;1.23;;
52512;SDS011;38422;53.172;6.974;2024-03-17T09:24:20;3.35;;;0.80;;
52512;SDS011;38422;53.172;6.974;2024-03-17T09:26:46;5.40;;;1.02;;
52512;SDS011;38422;53.172;6.974;2024-03-17T09:29:12;4.78;;;1.02;;
52512;SDS011;38422;53.172;6.974;2024-03-17T09:31:40;5.55;;;1.20;;
52512;SDS011;38422;53.172;6.974;2024-03-17T09:34:06;2.88;;;0.90;;
52512;SDS011;38422;53.172;6.974;2024-03-17T09:36:32;3.78;;;0.70;;
52512;SDS011;38422;53.172;6.974;2024-03-17T09:38:58;4.30;;;1.20;;
52512;SDS011;38422;53.172;6.974;2024-03-17T09:41:25;7.18;;;1.30;;
52512;SDS011;38422;53.172;6.974;2024-03-17T09:43:55;6.13;;;1.40;;
52512;SDS011;38422;53.172;6.974;2024-03-17T09:46:26;4.40;;;0.80;;
52512;SDS011;38422;53.172;6.974;2024-03-17T09:48:54;5.07;;;1.10;;
52512;SDS011;38422;53.172;6.974;2024-03-17T09:51:28;3.03;;;1.00;;
52512;SDS011;38422;53.172;6.974;2024-03-17T09:53:54;5.70;;;1.50;;
52512;SDS011;38422;53.172;6.974;2024-03-17T09:56:20;5.80;;;1.38;;
52512;SDS011;38422;53.172;6.974;2024-03-17T09:58:50;3.65;;;1.30;;
52512;SDS011;38422;53.172;6.974;2024-03-17T10:01:17;3.05;;;1.20;;
52512;SDS011;38422;53.172;6.974;2024-03-17T10:03:47;6.20;;;1.27;;
52512;SDS011;38422;53.172;6.974;2024-03-17T10:06:26;6.30;;;1.30;;
52512;SDS011;38422;53.172;6.974;2024-03-17T10:08:59;3.58;;;1.10;;
52512;SDS011;38422;53.172;6.974;2024-03-17T10:11:33;5.28;;;1.30;;
52512;SDS011;38422;53.172;6.974;2024-03-17T10:14:04;4.10;;;1.30;;
52512;SDS011;38422;53.172;6.974;2024-03-17T10:16:31;5.05;;;1.27;;
52512;SDS011;38422;53.172;6.974;2024-03-17T10:21:35;4.32;;;1.60;;
52512;SDS011;38422;53.172;6.974;2024-03-17T10:24:11;3.17;;;1.60;;
52512;SDS011;38422;53.172;6.974;2024-03-17T10:26:42;8.10;;;1.40;;
52512;SDS011;38422;53.172;6.974;2024-03-17T10:29:25;3.05;;;0.95;;
52512;SDS011;38422;53.172;6.974;2024-03-17T10:31:56;5.97;;;1.20;;
52512;SDS011;38422;53.172;6.974;2024-03-17T10:34:28;4.80;;;1.15;;
52512;SDS011;38422;53.172;6.974;2024-03-17T10:39:48;3.35;;;1.20;;
52512;SDS011;38422;53.172;6.974;2024-03-17T10:42:24;5.05;;;1.63;;
52512;SDS011;38422;53.172;6.974;2024-03-17T10:44:53;5.45;;;1.70;;
52512;SDS011;38422;53.172;6.974;2024-03-17T10:49:49;5.45;;;1.40;;
52512;SDS011;38422;53.172;6.974;2024-03-17T10:52:16;4.95;;;1.30;;
52512;SDS011;38422;53.172;6.974;2024-03-17T10:54:46;4.32;;;1.48;;
52512;SDS011;38422;53.172;6.974;2024-03-17T10:57:40;5.50;;;1.52;;
52512;SDS011;38422;53.172;6.974;2024-03-17T11:00:13;3.65;;;1.48;;
52512;SDS011;38422;53.172;6.974;2024-03-17T11:02:43;5.13;;;1.52;;
52512;SDS011;38422;53.172;6.974;2024-03-17T11:05:31;6.68;;;1.70;;
52512;SDS011;38422;53.172;6.974;2024-03-17T11:07:59;4.47;;;1.58;;
52512;SDS011;38422;53.172;6.974;2024-03-17T11:10:29;4.25;;;1.70;;
52512;SDS011;38422;53.172;6.974;2024-03-17T11:13:04;6.80;;;2.20;;
52512;SDS011;38422;53.172;6.974;2024-03-17T11:20:39;6.10;;;2.35;;
52512;SDS011;38422;53.172;6.974;2024-03-17T11:23:06;4.75;;;2.42;;
52512;SDS011;38422;53.172;6.974;2024-03-17T11:25:37;5.40;;;2.03;;
52512;SDS011;38422;53.172;6.974;2024-03-17T11:28:04;5.82;;;2.30;;
52512;SDS011;38422;53.172;6.974;2024-03-17T11:41:30;8.98;;;2.58;;
52512;SDS011;38422;53.172;6.974;2024-03-17T11:51:47;7.60;;;2.88;;
52512;SDS011;38422;53.172;6.974;2024-03-17T11:54:17;8.47;;;3.33;;
52512;SDS011;38422;53.172;6.974;2024-03-17T11:56:54;7.35;;;2.92;;
52512;SDS011;38422;53.172;6.974;2024-03-17T11:59:22;8.20;;;3.45;;
52512;SDS011;38422;53.172;6.974;2024-03-17T12:01:48;7.45;;;2.90;;
52512;SDS011;38422;53.172;6.974;2024-03-17T12:04:15;7.70;;;3.50;;
52512;SDS011;38422;53.172;6.974;2024-03-17T12:06:47;6.65;;;3.53;;
52512;SDS011;38422;53.172;6.974;2024-03-17T12:09:28;7.63;;;3.38;;
52512;SDS011;38422;53.172;6.974;2024-03-17T12:12:01;9.65;;;3.50;;
52512;SDS011;38422;53.172;6.974;2024-03-17T12:14:37;8.13;;;4.05;;
52512;SDS011;38422;53.172;6.974;2024-03-17T12:17:04;8.05;;;3.70;;
52512;SDS011;38422;53.172;6.974;2024-03-17T12:19:32;7.65;;;3.50;;
52512;SDS011;38422;53.172;6.974;2024-03-17T12:21:58;6.18;;;3.25;;
52512;SDS011;38422;53.172;6.974;2024-03-17T12:24:26;9.88;;;3.58;;
52512;SDS011;38422;53.172;6.974;2024-03-17T12:26:53;7.88;;;3.65;;
52512;SDS011;38422;53.172;6.974;2024-03-17T12:29:31;7.70;;;3.45;;
52512;SDS011;38422;53.172;6.974;2024-03-17T12:32:04;5.40;;;2.97;;
52512;SDS011;38422;53.172;6.974;2024-03-17T12:34:35;7.53;;;3.30;;
52512;SDS011;38422;53.172;6.974;2024-03-17T12:37:01;7.37;;;3.33;;
52512;SDS011;38422;53.172;6.974;2024-03-17T12:39:29;7.40;;;3.10;;
52512;SDS011;38422;53.172;6.974;2024-03-17T12:42:10;6.97;;;3.03;;
52512;SDS011;38422;53.172;6.974;2024-03-17T12:44:51;8.70;;;3.42;;
52512;SDS011;38422;53.172;6.974;2024-03-17T12:47:19;10.43;;;3.70;;
52512;SDS011;38422;53.172;6.974;2024-03-17T12:49:53;11.25;;;3.80;;
52512;SDS011;38422;53.172;6.974;2024-03-17T12:52:26;7.63;;;3.45;;
52512;SDS011;38422;53.172;6.974;2024-03-17T12:55:00;6.75;;;3.38;;
52512;SDS011;38422;53.172;6.974;2024-03-17T12:57:49;9.43;;;3.50;;
52512;SDS011;38422;53.172;6.974;2024-03-17T13:00:34;8.02;;;3.97;;
52512;SDS011;38422;53.172;6.974;2024-03-17T13:03:03;7.05;;;3.28;;
52512;SDS011;38422;53.172;6.974;2024-03-17T13:05:31;8.23;;;3.20;;
52512;SDS011;38422;53.172;6.974;2024-03-17T13:08:00;6.53;;;3.55;;
52512;SDS011;38422;53.172;6.974;2024-03-17T13:12:58;8.25;;;3.42;;
52512;SDS011;38422;53.172;6.974;2024-03-17T13:15:28;9.43;;;3.72;;
52512;SDS011;38422;53.172;6.974;2024-03-17T13:17:58;5.75;;;2.92;;
52512;SDS011;38422;53.172;6.974;2024-03-17T13:20:24;6.28;;;3.13;;
52512;SDS011;38422;53.172;6.974;2024-03-17T13:22:50;5.70;;;3.60;;
52512;SDS011;38422;53.172;6.974;2024-03-17T13:25:17;10.25;;;3.65;;
52512;SDS011;38422;53.172;6.974;2024-03-17T13:27:44;6.03;;;3.53;;
52512;SDS011;38422;53.172;6.974;2024-03-17T13:30:14;7.82;;;3.13;;
52512;SDS011;38422;53.172;6.974;2024-03-17T13:32:41;6.22;;;3.25;;
52512;SDS011;38422;53.172;6.974;2024-03-17T13:35:19;6.55;;;3.30;;
52512;SDS011;38422;53.172;6.974;2024-03-17T13:37:46;11.20;;;3.70;;
52512;SDS011;38422;53.172;6.974;2024-03-17T13:40:13;7.22;;;3.35;;
52512;SDS011;38422;53.172;6.974;2024-03-17T13:42:46;11.55;;;3.88;;
52512;SDS011;38422;53.172;6.974;2024-03-17T13:45:16;8.98;;;3.60;;
52512;SDS011;38422;53.172;6.974;2024-03-17T13:48:05;7.05;;;3.50;;
52512;SDS011;38422;53.172;6.974;2024-03-17T13:50:29;6.93;;;3.15;;
52512;SDS011;38422;53.172;6.974;2024-03-17T13:52:55;5.47;;;2.92;;
52512;SDS011;38422;53.172;6.974;2024-03-17T13:55:22;5.93;;;3.10;;
52512;SDS011;38422;53.172;6.974;2024-03-17T13:57:52;6.30;;;3.28;;
52512;SDS011;38422;53.172;6.974;2024-03-17T14:00:20;6.35;;;3.15;;
52512;SDS011;38422;53.172;6.974;2024-03-17T14:02:47;6.70;;;3.42;;
52512;SDS011;38422;53.172;6.974;2024-03-17T14:07:43;6.65;;;3.20;;
52512;SDS011;38422;53.172;6.974;2024-03-17T14:10:09;7.57;;;3.30;;
52512;SDS011;38422;53.172;6.974;2024-03-17T14:12:37;8.05;;;3.90;;
52512;SDS011;38422;53.172;6.974;2024-03-17T14:15:04;6.18;;;3.53;;
52512;SDS011;38422;53.172;6.974;2024-03-17T14:17:32;6.05;;;3.53;;
52512;SDS011;38422;53.172;6.974;2024-03-17T14:19:58;7.93;;;3.38;;
52512;SDS011;38422;53.172;6.974;2024-03-17T14:22:24;5.93;;;2.95;;
52512;SDS011;38422;53.172;6.974;2024-03-17T14:24:50;5.57;;;3.08;;
52512;SDS011;38422;53.172;6.974;2024-03-17T14:27:16;7.63;;;3.20;;
52512;SDS011;38422;53.172;6.974;2024-03-17T14:29:42;8.15;;;3.60;;
52512;SDS011;38422;53.172;6.974;2024-03-17T14:32:08;6.13;;;2.92;;
52512;SDS011;38422;53.172;6.974;2024-03-17T14:34:34;6.68;;;3.20;;
52512;SDS011;38422;53.172;6.974;2024-03-17T14:37:02;8.45;;;3.13;;
52512;SDS011;38422;53.172;6.974;2024-03-17T14:39:28;8.35;;;3.60;;
52512;SDS011;38422;53.172;6.974;2024-03-17T14:41:57;6.20;;;3.13;;
52512;SDS011;38422;53.172;6.974;2024-03-17T14:44:23;5.97;;;3.13;;
52512;SDS011;38422;53.172;6.974;2024-03-17T14:46:49;6.32;;;3.25;;
52512;SDS011;38422;53.172;6.974;2024-03-17T14:49:20;6.38;;;3.67;;
52512;SDS011;38422;53.172;6.974;2024-03-17T14:51:46;7.30;;;4.40;;
52512;SDS011;38422;53.172;6.974;2024-03-17T14:54:13;6.20;;;3.83;;
52512;SDS011;38422;53.172;6.974;2024-03-17T14:56:38;6.78;;;3.97;;
52512;SDS011;38422;53.172;6.974;2024-03-17T14:59:07;6.50;;;4.25;;
52512;SDS011;38422;53.172;6.974;2024-03-17T15:01:33;6.63;;;4.20;;
52512;SDS011;38422;53.172;6.974;2024-03-17T15:03:59;7.40;;;4.38;;
52512;SDS011;38422;53.172;6.974;2024-03-17T15:06:25;7.65;;;3.88;;
52512;SDS011;38422;53.172;6.974;2024-03-17T15:08:52;7.93;;;4.57;;
52512;SDS011;38422;53.172;6.974;2024-03-17T15:11:18;8.68;;;5.00;;
52512;SDS011;38422;53.172;6.974;2024-03-17T15:13:43;7.95;;;4.72;;
52512;SDS011;38422;53.172;6.974;2024-03-17T15:16:10;7.85;;;4.43;;
52512;SDS011;38422;53.172;6.974;2024-03-17T15:21:03;7.75;;;4.82;;
52512;SDS011;38422;53.172;6.974;2024-03-17T15:23:32;8.63;;;4.63;;
52512;SDS011;38422;53.172;6.974;2024-03-17T15:26:01;6.93;;;4.25;;
52512;SDS011;38422;53.172;6.974;2024-03-17T15:28:34;9.88;;;4.75;;
52512;SDS011;38422;53.172;6.974;2024-03-17T15:31:04;8.50;;;4.50;;
52512;SDS011;38422;53.172;6.974;2024-03-17T15:33:31;8.07;;;4.80;;